Time;durP1;ratioP1;P1;durP2;ratioP2;P2;SDS_P1;SDS_P2;PMS_P1;PMS_P2;Temp;Humidity;BMP_temperature;BMP_pressure;BME280_temperature;BME280_humidity;BME280_pressure;Samples;Min_cycle;Max_cycle;Signal;HPM_P1;HPM_P2
2021/09/25 00:01:08;;;;;;;4.57;2.00;;;25.60;99.90;;;;;;5019505;28;20225;-94
2021/09/25 00:03:41;;;;;;;2.67;2.13;;;25.30;99.90;;;;;;5020848;28;20225;-94
2021/09/25 00:06:14;;;;;;;4.70;2.40;;;25.20;99.90;;;;;;5024827;28;20205;-93
2021/09/25 00:08:45;;;;;;;4.37;2.10;;;24.90;99.90;;;;;;5024570;28;20316;-93
2021/09/25 00:11:17;;;;;;;4.40;2.53;;;24.80;99.90;;;;;;5016298;28;20209;-95
2021/09/25 00:13:48;;;;;;;5.17;2.63;;;24.70;99.90;;;;;;5030504;28;20206;-95
2021/09/25 00:16:19;;;;;;;4.00;2.40;;;24.40;99.90;;;;;;5017992;28;20234;-95
2021/09/25 00:18:51;;;;;;;3.50;2.47;;;24.10;99.90;;;;;;4990906;28;20249;-94
2021/09/25 00:21:24;;;;;;;3.07;2.13;;;23.80;99.90;;;;;;5015966;28;20237;-94
2021/09/25 00:23:56;;;;;;;6.97;2.20;;;23.80;99.90;;;;;;5025171;28;20241;-96
2021/09/25 00:26:27;;;;;;;4.70;2.37;;;23.70;99.90;;;;;;5024569;28;20664;-96
2021/09/25 00:29:00;;;;;;;3.63;2.20;;;23.70;99.90;;;;;;5007330;28;20322;-94
2021/09/25 00:31:31;;;;;;;4.37;2.30;;;23.60;99.90;;;;;;5005039;28;20210;-94
2021/09/25 00:34:03;;;;;;;5.43;2.03;;;23.70;99.90;;;;;;5022936;28;20209;-94
2021/09/25 00:36:41;;;;;;;3.13;2.23;;;23.60;99.90;;;;;;5031174;28;20204;-95
2021/09/25 00:39:23;;;;;;;7.87;2.03;;;23.50;99.90;;;;;;5018644;28;20217;-92
2021/09/25 00:41:55;;;;;;;8.63;2.60;;;23.40;99.90;;;;;;5031939;28;20193;-93
2021/09/25 00:44:40;;;;;;;5.67;2.33;;;23.30;99.90;;;;;;5021454;28;20209;-95
2021/09/25 00:47:20;;;;;;;5.73;2.10;;;23.30;99.90;;;;;;5027133;28;20264;-95
2021/09/25 00:53:08;;;;;;;3.73;2.40;;;23.10;99.90;;;;;;5032128;28;20206;-92
2021/09/25 00:55:41;;;;;;;3.90;2.53;;;23.00;99.90;;;;;;5024520;28;20225;-93
2021/09/25 00:58:14;;;;;;;4.03;2.63;;;22.90;99.90;;;;;;5023246;28;20214;-93
2021/09/25 01:00:47;;;;;;;3.30;2.23;;;22.80;99.90;;;;;;5029694;28;20209;-94
2021/09/25 01:03:20;;;;;;;7.43;2.57;;;22.80;99.90;;;;;;5028674;28;20207;-93
2021/09/25 01:05:52;;;;;;;4.70;2.30;;;22.70;99.90;;;;;;5033135;28;20220;-93
2021/09/25 01:08:28;;;;;;;3.60;2.17;;;22.60;99.90;;;;;;5037146;28;20234;-94
2021/09/25 01:10:59;;;;;;;4.73;2.20;;;22.50;99.90;;;;;;5018491;28;20201;-95
2021/09/25 01:13:31;;;;;;;5.80;2.97;;;22.40;99.90;;;;;;5033245;28;20193;-94
2021/09/25 01:16:04;;;;;;;5.80;2.43;;;22.20;99.90;;;;;;5018269;28;20708;-94
2021/09/25 01:18:38;;;;;;;4.20;2.37;;;22.10;99.90;;;;;;5019315;28;20252;-93
2021/09/25 01:21:12;;;;;;;5.73;2.60;;;22.00;99.90;;;;;;5024925;28;20232;-94
2021/09/25 01:23:46;;;;;;;4.67;2.57;;;21.80;99.90;;;;;;4673225;28;10000197;-92
2021/09/25 01:26:17;;;;;;;4.20;2.80;;;21.70;99.90;;;;;;5020069;28;20210;-91
2021/09/25 01:28:49;;;;;;;5.80;3.00;;;21.60;99.90;;;;;;5021611;28;20238;-93
2021/09/25 01:31:21;;;;;;;7.07;2.60;;;21.50;99.90;;;;;;5022180;28;20623;-92
2021/09/25 01:33:54;;;;;;;7.77;2.90;;;21.30;99.90;;;;;;5012862;28;20278;-92
2021/09/25 01:36:28;;;;;;;6.17;2.87;;;21.10;99.90;;;;;;5013581;28;20225;-91
2021/09/25 01:38:59;;;;;;;6.93;3.30;;;21.00;99.90;;;;;;5029652;28;20206;-91
2021/09/25 01:41:31;;;;;;;5.10;2.83;;;20.80;99.90;;;;;;5020057;28;20217;-91
2021/09/25 01:44:02;;;;;;;5.23;2.80;;;20.70;99.90;;;;;;5003266;28;20229;-91
2021/09/25 01:46:35;;;;;;;4.67;2.63;;;20.40;99.90;;;;;;5025942;28;20209;-90
2021/09/25 01:49:07;;;;;;;7.60;2.80;;;20.30;99.90;;;;;;5031103;28;20244;-91
2021/09/25 01:51:42;;;;;;;5.27;2.80;;;20.10;99.90;;;;;;5023975;28;20312;-91
2021/09/25 01:54:17;;;;;;;4.23;2.70;;;20.00;99.90;;;;;;5025929;28;20209;-91
2021/09/25 01:56:50;;;;;;;3.83;2.60;;;19.80;99.90;;;;;;5033321;28;20726;-92
2021/09/25 01:59:22;;;;;;;5.40;2.50;;;19.80;99.90;;;;;;5017958;28;20221;-93
2021/09/25 02:01:54;;;;;;;6.93;2.60;;;19.60;99.90;;;;;;4997147;28;20216;-94
2021/09/25 02:04:25;;;;;;;6.07;2.97;;;19.60;99.90;;;;;;5038406;28;20293;-93
2021/09/25 02:06:59;;;;;;;9.10;2.50;;;19.60;99.90;;;;;;5034215;28;20224;-94
2021/09/25 02:09:31;;;;;;;4.43;2.80;;;19.40;99.90;;;;;;5036928;28;20236;-94
2021/09/25 02:12:17;;;;;;;4.03;2.90;;;19.30;99.90;;;;;;5032525;28;20210;-94
2021/09/25 02:14:49;;;;;;;6.70;3.07;;;19.20;99.90;;;;;;5033531;28;20206;-89
2021/09/25 02:17:21;;;;;;;5.43;2.90;;;19.20;99.90;;;;;;5031178;28;20213;-95
2021/09/25 02:19:53;;;;;;;6.07;2.77;;;19.10;99.90;;;;;;5030851;28;20226;-95
2021/09/25 02:25:27;;;;;;;7.13;2.97;;;19.00;99.90;;;;;;5029526;28;20209;-94
2021/09/25 02:28:00;;;;;;;3.23;2.87;;;18.80;99.90;;;;;;5028419;28;20202;-93
2021/09/25 02:30:32;;;;;;;4.90;3.13;;;18.70;99.90;;;;;;5028107;28;20241;-92
2021/09/25 02:33:04;;;;;;;5.57;3.10;;;18.60;99.90;;;;;;5024548;28;20223;-94
2021/09/25 02:35:38;;;;;;;3.87;3.00;;;18.50;99.90;;;;;;5029013;28;20201;-96
2021/09/25 02:38:12;;;;;;;9.63;3.30;;;18.40;99.90;;;;;;5029487;28;20210;-93
2021/09/25 02:40:44;;;;;;;4.20;2.80;;;18.40;99.90;;;;;;5024112;28;20224;-92
2021/09/25 02:43:17;;;;;;;6.20;2.90;;;18.40;99.90;;;;;;5028432;28;20255;-95
2021/09/25 02:45:49;;;;;;;5.63;2.90;;;18.30;99.90;;;;;;5023283;28;20244;-95
2021/09/25 02:48:21;;;;;;;6.23;3.33;;;18.30;99.90;;;;;;5006537;28;20210;-93
2021/09/25 02:50:53;;;;;;;8.97;3.90;;;18.30;99.90;;;;;;5002637;28;20242;-92
2021/09/25 02:53:28;;;;;;;5.37;3.70;;;18.30;99.90;;;;;;5016891;28;20646;-92
2021/09/25 02:56:00;;;;;;;4.43;3.40;;;18.20;99.90;;;;;;5015768;28;20292;-92
2021/09/25 02:58:32;;;;;;;6.47;3.20;;;18.10;99.90;;;;;;5006086;28;20273;-91
2021/09/25 03:01:04;;;;;;;4.13;3.20;;;18.10;99.90;;;;;;5021403;28;20269;-92
2021/09/25 03:03:36;;;;;;;4.60;2.80;;;18.10;99.90;;;;;;5022653;28;20300;-91
2021/09/25 03:06:09;;;;;;;7.77;3.53;;;18.10;99.90;;;;;;5026923;28;20221;-92
2021/09/25 03:08:42;;;;;;;5.10;3.23;;;18.10;99.90;;;;;;5001599;28;20248;-92
2021/09/25 03:11:14;;;;;;;4.50;3.03;;;18.00;99.90;;;;;;5017225;28;20214;-92
2021/09/25 03:13:46;;;;;;;4.43;2.93;;;18.00;99.90;;;;;;5017472;28;20217;-92
2021/09/25 03:16:18;;;;;;;5.10;3.30;;;18.00;99.90;;;;;;5017397;28;20232;-93
2021/09/25 03:18:49;;;;;;;3.10;2.67;;;17.80;99.90;;;;;;5017359;28;20914;-93
2021/09/25 03:21:21;;;;;;;4.07;3.17;;;17.80;99.90;;;;;;5019333;28;20209;-93
2021/09/25 03:23:54;;;;;;;6.27;3.23;;;17.70;99.90;;;;;;5027626;28;20226;-93
2021/09/25 03:26:26;;;;;;;6.20;3.30;;;17.70;99.90;;;;;;5029209;28;20280;-92
2021/09/25 03:28:57;;;;;;;5.83;3.37;;;17.60;99.90;;;;;;5028465;28;20217;-92
2021/09/25 03:31:30;;;;;;;6.60;3.10;;;17.50;99.90;;;;;;5002687;28;20209;-92
2021/09/25 03:34:03;;;;;;;9.40;3.23;;;17.50;99.90;;;;;;5028677;28;20269;-90
2021/09/25 03:36:35;;;;;;;10.77;3.17;;;17.40;99.90;;;;;;5030324;28;20209;-92
2021/09/25 03:39:11;;;;;;;5.90;3.00;;;17.40;99.90;;;;;;5018343;28;20209;-93
2021/09/25 03:41:43;;;;;;;8.13;3.30;;;17.40;99.90;;;;;;5023935;28;20236;-92
2021/09/25 03:44:16;;;;;;;6.17;3.30;;;17.40;99.90;;;;;;5038101;28;20240;-93
2021/09/25 03:46:47;;;;;;;8.97;4.93;;;17.40;99.90;;;;;;5021428;28;20240;-93
2021/09/25 03:49:20;;;;;;;6.83;3.90;;;17.30;99.90;;;;;;5034504;28;20244;-93
2021/09/25 03:51:55;;;;;;;7.60;4.43;;;17.30;99.90;;;;;;5045814;28;20198;-93
2021/09/25 03:54:30;;;;;;;7.63;4.73;;;17.20;99.90;;;;;;5031975;28;20218;-92
2021/09/25 03:57:03;;;;;;;6.43;4.30;;;17.20;99.90;;;;;;5029859;28;20193;-91
2021/09/25 03:59:35;;;;;;;5.13;3.23;;;17.20;99.90;;;;;;5029233;28;20225;-93
2021/09/25 04:02:10;;;;;;;4.97;3.50;;;17.10;99.90;;;;;;4998997;28;20192;-93
2021/09/25 04:04:42;;;;;;;5.57;3.37;;;17.10;99.90;;;;;;5029744;28;20237;-94
2021/09/25 04:07:17;;;;;;;4.97;3.20;;;17.10;99.90;;;;;;5013572;28;20209;-92
2021/09/25 04:09:52;;;;;;;5.90;4.10;;;17.00;99.90;;;;;;5014447;28;20256;-93
2021/09/25 04:12:25;;;;;;;9.60;4.23;;;17.00;99.90;;;;;;5029360;28;20197;-96
2021/09/25 04:14:56;;;;;;;8.03;4.10;;;16.90;99.90;;;;;;5027712;28;20236;-95
2021/09/25 04:17:41;;;;;;;8.10;5.17;;;16.80;99.90;;;;;;5021694;28;20195;-90
2021/09/25 04:20:14;;;;;;;7.00;4.53;;;16.80;99.90;;;;;;5020625;28;20206;-94
2021/09/25 04:22:45;;;;;;;9.87;3.87;;;16.80;99.90;;;;;;5028340;28;20246;-89
2021/09/25 04:25:19;;;;;;;5.80;4.13;;;16.70;99.90;;;;;;5036446;28;20224;-91
2021/09/25 04:27:51;;;;;;;5.00;4.17;;;16.70;99.90;;;;;;5036943;28;20194;-91
2021/09/25 04:30:25;;;;;;;7.50;4.20;;;16.60;99.90;;;;;;5036345;28;20217;-91
2021/09/25 04:32:57;;;;;;;7.40;3.80;;;16.60;99.90;;;;;;5036565;28;20201;-92
2021/09/25 04:35:30;;;;;;;4.23;3.67;;;16.60;99.90;;;;;;5036623;28;20240;-92
2021/09/25 04:38:01;;;;;;;4.30;3.47;;;16.50;99.90;;;;;;5035657;28;20236;-91
2021/09/25 04:40:36;;;;;;;4.93;3.57;;;16.50;99.90;;;;;;5020818;28;20193;-91
2021/09/25 04:43:07;;;;;;;5.27;3.83;;;16.40;99.90;;;;;;5023806;28;20205;-91
2021/09/25 04:45:38;;;;;;;5.93;3.50;;;16.40;99.90;;;;;;5022042;28;20237;-91
2021/09/25 04:48:11;;;;;;;5.40;3.37;;;16.40;99.90;;;;;;5027907;28;20206;-91
2021/09/25 04:50:43;;;;;;;3.40;3.10;;;16.40;99.90;;;;;;5027092;28;20237;-91
2021/09/25 04:53:17;;;;;;;9.43;3.40;;;16.30;99.90;;;;;;5019881;28;20680;-91
2021/09/25 04:55:50;;;;;;;4.70;3.47;;;16.30;99.90;;;;;;5020643;28;20210;-91
2021/09/25 04:58:27;;;;;;;5.07;3.40;;;16.20;99.90;;;;;;5027542;28;20209;-92
2021/09/25 05:00:59;;;;;;;5.63;3.40;;;16.20;99.90;;;;;;5013761;28;20201;-91
2021/09/25 05:03:32;;;;;;;5.37;3.37;;;16.20;99.90;;;;;;5021577;28;20217;-91
2021/09/25 05:06:04;;;;;;;10.13;3.87;;;16.20;99.90;;;;;;5020015;28;20316;-92
2021/09/25 05:08:36;;;;;;;4.10;3.40;;;16.10;99.90;;;;;;5025108;28;20226;-90
2021/09/25 05:11:17;;;;;;;5.80;3.73;;;16.10;99.90;;;;;;5035122;28;20213;-91
2021/09/25 05:13:52;;;;;;;4.20;3.47;;;16.10;99.90;;;;;;5321938;22;20233;-89
2021/09/25 05:16:23;;;;;;;5.53;3.40;;;16.10;99.90;;;;;;5025866;28;20206;-90
2021/09/25 05:18:59;;;;;;;4.63;3.30;;;16.10;99.90;;;;;;5028911;28;20197;-88
2021/09/25 05:21:30;;;;;;;5.47;2.90;;;16.20;99.90;;;;;;5021786;28;20206;-90
2021/09/25 05:24:02;;;;;;;5.63;3.20;;;16.10;99.90;;;;;;5021845;28;20207;-90
2021/09/25 05:27:00;;;;;;;5.97;4.00;;;16.10;99.90;;;;;;5020716;28;20622;-90
2021/09/25 05:29:32;;;;;;;4.20;3.57;;;16.10;99.90;;;;;;5015273;28;20221;-90
2021/09/25 05:32:06;;;;;;;5.83;3.87;;;16.00;99.90;;;;;;5030559;28;20252;-90
2021/09/25 05:34:45;;;;;;;5.00;3.40;;;16.00;99.90;;;;;;5028039;28;20252;-90
2021/09/25 05:37:30;;;;;;;4.70;3.60;;;16.00;99.90;;;;;;5024660;28;20279;-90
2021/09/25 05:40:21;;;;;;;5.90;3.80;;;15.90;99.90;;;;;;5022415;28;20201;-91
2021/09/25 05:42:55;;;;;;;5.47;3.53;;;15.80;99.90;;;;;;5020487;28;20233;-91
2021/09/25 05:45:27;;;;;;;7.20;3.87;;;15.70;99.90;;;;;;5021042;28;20535;-91
2021/09/25 05:47:59;;;;;;;5.70;3.73;;;15.70;99.90;;;;;;5020136;28;20208;-91
2021/09/25 05:50:32;;;;;;;6.93;3.53;;;15.70;99.90;;;;;;5018721;28;20232;-90
2021/09/25 05:53:03;;;;;;;4.67;3.60;;;15.70;99.90;;;;;;5019542;28;20605;-91
2021/09/25 05:55:36;;;;;;;6.13;3.90;;;15.60;99.90;;;;;;5019538;28;20202;-91
2021/09/25 05:58:11;;;;;;;5.70;3.80;;;15.50;99.90;;;;;;5019361;28;20333;-91
2021/09/25 06:00:42;;;;;;;4.03;3.63;;;15.40;99.90;;;;;;5018873;28;20233;-91
2021/09/25 06:03:15;;;;;;;8.57;4.10;;;15.40;99.90;;;;;;5004441;28;20224;-90
2021/09/25 06:05:56;;;;;;;5.77;3.97;;;15.40;99.90;;;;;;5009100;28;20241;-91
2021/09/25 06:08:28;;;;;;;5.07;3.40;;;15.30;99.90;;;;;;5004069;28;20756;-91
2021/09/25 06:11:12;;;;;;;5.60;3.67;;;15.30;99.90;;;;;;5000372;28;20234;-92
2021/09/25 06:13:46;;;;;;;3.70;3.40;;;15.20;99.90;;;;;;5013950;28;20216;-92
2021/09/25 06:16:18;;;;;;;5.50;3.87;;;15.20;99.90;;;;;;5021467;28;20212;-92
2021/09/25 06:18:50;;;;;;;4.93;3.50;;;15.20;99.90;;;;;;5019947;28;20229;-92
2021/09/25 06:21:21;;;;;;;4.40;3.50;;;15.10;99.90;;;;;;5017222;28;20209;-92
2021/09/25 06:23:53;;;;;;;6.63;3.73;;;15.10;99.90;;;;;;5020588;28;20205;-92
2021/09/25 06:26:25;;;;;;;6.10;3.20;;;15.10;99.90;;;;;;5021254;28;20248;-91
2021/09/25 06:29:00;;;;;;;4.93;3.73;;;15.10;99.90;;;;;;5024897;28;20208;-92
2021/09/25 06:31:31;;;;;;;5.07;3.53;;;15.00;99.90;;;;;;5031942;28;20260;-91
2021/09/25 06:34:03;;;;;;;5.80;4.10;;;14.90;99.90;;;;;;5018663;28;20260;-91
2021/09/25 06:36:40;;;;;;;6.40;3.73;;;14.80;99.90;;;;;;4997945;28;20210;-92
2021/09/25 06:39:11;;;;;;;9.90;3.80;;;14.80;99.90;;;;;;5022138;28;20271;-91
2021/09/25 06:41:43;;;;;;;5.23;3.70;;;14.70;99.90;;;;;;5018952;28;20232;-91
2021/09/25 06:44:18;;;;;;;8.07;4.30;;;14.70;99.90;;;;;;5278923;22;20271;-91
2021/09/25 06:46:50;;;;;;;9.93;4.63;;;14.60;99.90;;;;;;5057523;28;20280;-91
2021/09/25 06:49:22;;;;;;;8.33;4.27;;;14.60;99.90;;;;;;5043581;28;20347;-91
2021/09/25 06:51:53;;;;;;;7.33;4.53;;;14.50;99.90;;;;;;5042141;28;20233;-92
2021/09/25 06:54:24;;;;;;;5.90;4.30;;;14.50;99.90;;;;;;5022091;28;20206;-91
2021/09/25 06:56:58;;;;;;;7.80;4.50;;;14.50;99.90;;;;;;5022213;28;20214;-91
2021/09/25 06:59:33;;;;;;;6.50;4.77;;;14.50;99.90;;;;;;5039877;28;20217;-90
2021/09/25 07:02:04;;;;;;;5.03;4.03;;;14.50;99.90;;;;;;5038105;28;20213;-91
2021/09/25 07:04:36;;;;;;;6.07;4.17;;;14.50;99.90;;;;;;5033620;28;20201;-91
2021/09/25 07:09:47;;;;;;;8.10;4.40;;;14.40;99.90;;;;;;5016826;28;20221;-91
2021/09/25 07:12:19;;;;;;;7.43;4.53;;;14.40;99.90;;;;;;5017798;28;20225;-91
2021/09/25 07:14:53;;;;;;;6.87;4.50;;;14.40;99.90;;;;;;5018253;28;20229;-91
2021/09/25 07:17:25;;;;;;;6.17;4.40;;;14.40;99.90;;;;;;5018629;28;20210;-91
2021/09/25 07:20:00;;;;;;;4.63;3.97;;;14.40;99.90;;;;;;5017941;28;20890;-90
2021/09/25 07:22:40;;;;;;;6.17;4.27;;;14.40;99.90;;;;;;5002624;28;20220;-90
2021/09/25 07:25:12;;;;;;;6.60;4.33;;;14.40;99.90;;;;;;5018462;28;20217;-90
2021/09/25 07:27:43;;;;;;;4.77;4.27;;;14.30;99.90;;;;;;5018543;28;20212;-90
2021/09/25 07:30:19;;;;;;;7.20;4.67;;;14.30;99.90;;;;;;4997203;28;20214;-90
2021/09/25 07:32:51;;;;;;;6.50;4.20;;;14.30;99.90;;;;;;4996098;28;20287;-90
2021/09/25 07:35:23;;;;;;;7.70;4.20;;;14.30;99.90;;;;;;5002412;28;20233;-90
2021/09/25 07:37:56;;;;;;;7.03;4.33;;;14.30;99.90;;;;;;5022545;28;20198;-92
2021/09/25 07:40:27;;;;;;;4.97;4.23;;;14.30;99.90;;;;;;5020494;28;20233;-91
2021/09/25 07:43:02;;;;;;;5.70;4.33;;;14.30;99.90;;;;;;5033162;28;20203;-91
2021/09/25 07:45:36;;;;;;;9.97;4.10;;;14.30;99.90;;;;;;5025585;28;20221;-91
2021/09/25 07:48:08;;;;;;;7.03;4.27;;;14.30;99.90;;;;;;5018622;28;20740;-90
2021/09/25 07:50:41;;;;;;;5.57;4.07;;;14.20;99.90;;;;;;5017433;28;20256;-91
2021/09/25 07:53:12;;;;;;;4.40;4.00;;;14.20;99.90;;;;;;5018263;28;20241;-88
2021/09/25 07:55:48;;;;;;;7.37;4.50;;;14.20;99.90;;;;;;5048545;23;20240;-90
2021/09/25 07:58:20;;;;;;;5.77;4.17;;;14.10;99.90;;;;;;5000961;28;20210;-90
2021/09/25 08:00:56;;;;;;;5.87;4.37;;;14.10;99.90;;;;;;5016129;28;20635;-90
2021/09/25 08:03:27;;;;;;;7.23;4.70;;;14.10;99.90;;;;;;5014743;28;20289;-90
2021/09/25 08:05:59;;;;;;;7.17;4.43;;;14.10;99.90;;;;;;4996666;28;20206;-90
2021/09/25 08:08:30;;;;;;;5.57;4.50;;;14.10;99.90;;;;;;5000979;28;20206;-91
2021/09/25 08:11:02;;;;;;;7.20;4.67;;;14.10;99.90;;;;;;5015656;28;20296;-90
2021/09/25 08:13:34;;;;;;;5.10;4.07;;;14.10;99.90;;;;;;5015931;28;20279;-91
2021/09/25 08:16:08;;;;;;;5.60;4.17;;;14.00;99.90;;;;;;5016350;28;20296;-91
2021/09/25 08:18:39;;;;;;;8.57;4.60;;;14.00;99.90;;;;;;5016505;28;20209;-90
2021/09/25 08:21:11;;;;;;;5.63;4.27;;;14.00;99.90;;;;;;5002771;28;20634;-91
2021/09/25 08:23:42;;;;;;;7.27;4.40;;;13.90;99.90;;;;;;5014733;28;20224;-92
2021/09/25 08:26:15;;;;;;;5.27;4.30;;;13.90;99.90;;;;;;5018330;28;20257;-92
2021/09/25 08:28:46;;;;;;;6.23;4.17;;;13.90;99.90;;;;;;5018299;28;20206;-92
2021/09/25 08:31:19;;;;;;;6.17;4.50;;;13.80;99.90;;;;;;5019902;28;20245;-91
2021/09/25 08:33:52;;;;;;;6.27;4.27;;;13.80;99.90;;;;;;5019386;28;20262;-91
2021/09/25 08:36:22;;;;;;;5.03;4.53;;;13.90;99.90;;;;;;5019493;28;20256;-91
2021/09/25 08:39:09;;;;;;;7.57;4.63;;;13.80;99.90;;;;;;5019564;28;20727;-91
2021/09/25 08:41:40;;;;;;;11.80;4.70;;;13.80;99.90;;;;;;5019291;28;20281;-91
2021/09/25 08:44:12;;;;;;;9.50;5.40;;;13.80;99.90;;;;;;5006628;28;20209;-91
2021/09/25 08:46:45;;;;;;;6.77;5.23;;;13.80;99.90;;;;;;5019617;28;20622;-89
2021/09/25 08:49:17;;;;;;;6.07;5.07;;;13.80;99.90;;;;;;5022979;28;20488;-90
2021/09/25 08:51:49;;;;;;;9.73;5.53;;;13.80;99.90;;;;;;5026213;28;20218;-92
2021/09/25 08:54:23;;;;;;;7.50;5.03;;;13.80;99.90;;;;;;5023501;28;20292;-89
2021/09/25 08:56:54;;;;;;;6.87;4.73;;;13.80;99.90;;;;;;5023696;28;20612;-90
2021/09/25 08:59:26;;;;;;;5.97;4.83;;;13.80;99.90;;;;;;5026177;28;20197;-90
2021/09/25 09:02:13;;;;;;;10.03;5.53;;;13.80;99.90;;;;;;5019186;28;20222;-88
2021/09/25 09:04:47;;;;;;;12.40;5.53;;;13.80;99.90;;;;;;5019654;28;20210;-89
2021/09/25 09:07:20;;;;;;;7.73;5.57;;;13.70;99.90;;;;;;5011946;28;20202;-90
2021/09/25 09:09:54;;;;;;;9.03;5.37;;;13.70;99.90;;;;;;5021630;28;20217;-91
2021/09/25 09:12:27;;;;;;;11.87;5.23;;;13.70;99.90;;;;;;5019216;28;20280;-90
2021/09/25 09:14:58;;;;;;;8.27;5.10;;;13.60;99.90;;;;;;5019615;28;20233;-90
2021/09/25 09:17:32;;;;;;;9.27;4.73;;;13.60;99.90;;;;;;5019507;28;20656;-90
2021/09/25 09:20:11;;;;;;;10.43;5.60;;;13.60;99.90;;;;;;5019025;28;20570;-90
2021/09/25 09:22:42;;;;;;;7.10;4.77;;;13.60;99.90;;;;;;5018454;28;20236;-90
2021/09/25 09:25:13;;;;;;;6.07;5.07;;;13.50;99.90;;;;;;5019744;28;20210;-89
2021/09/25 09:27:47;;;;;;;8.40;5.37;;;13.50;99.90;;;;;;5020242;28;20283;-90
2021/09/25 09:30:19;;;;;;;7.00;5.10;;;13.40;99.90;;;;;;5019649;28;20245;-89
2021/09/25 09:32:52;;;;;;;7.63;5.40;;;13.40;99.90;;;;;;5018085;28;20229;-89
2021/09/25 09:35:24;;;;;;;7.07;5.20;;;13.30;99.90;;;;;;5016843;28;20229;-90
2021/09/25 09:37:58;;;;;;;6.83;5.10;;;13.30;99.90;;;;;;5020332;28;20210;-89
2021/09/25 09:40:30;;;;;;;5.03;4.50;;;13.40;99.90;;;;;;5000683;28;20230;-89
2021/09/25 09:43:03;;;;;;;5.83;4.47;;;13.30;99.90;;;;;;4999480;28;20218;-90
2021/09/25 09:45:39;;;;;;;9.70;5.07;;;13.20;99.90;;;;;;5015340;28;20252;-91
2021/09/25 09:48:13;;;;;;;7.03;4.97;;;13.20;99.90;;;;;;5019227;28;20279;-90
2021/09/25 09:50:45;;;;;;;6.03;4.47;;;13.20;99.90;;;;;;5021055;28;20259;-90
2021/09/25 09:53:17;;;;;;;9.83;5.43;;;13.20;99.90;;;;;;5021238;28;20261;-90
2021/09/25 09:55:49;;;;;;;7.00;4.97;;;13.20;99.90;;;;;;5025768;28;20213;-90
2021/09/25 09:58:20;;;;;;;5.17;4.47;;;13.20;99.90;;;;;;5038242;28;20272;-88
2021/09/25 10:00:52;;;;;;;7.00;4.90;;;13.10;99.90;;;;;;5036370;28;20202;-89
2021/09/25 10:03:25;;;;;;;7.70;5.27;;;13.10;99.90;;;;;;5032729;28;20225;-88
2021/09/25 10:05:57;;;;;;;6.30;5.33;;;13.10;99.90;;;;;;5034615;28;20228;-90
2021/09/25 10:08:29;;;;;;;6.67;5.00;;;13.10;99.90;;;;;;5021442;28;20217;-90
2021/09/25 10:11:01;;;;;;;7.23;5.27;;;13.00;99.90;;;;;;5019175;28;20440;-90
2021/09/25 10:13:35;;;;;;;7.50;4.77;;;13.00;99.90;;;;;;5018646;28;20301;-90
2021/09/25 10:16:08;;;;;;;10.00;4.97;;;13.00;99.90;;;;;;5020500;28;20211;-90
2021/09/25 10:18:41;;;;;;;7.10;5.33;;;13.00;99.90;;;;;;5018547;28;20209;-90
2021/09/25 10:21:15;;;;;;;6.77;5.30;;;12.90;99.90;;;;;;5017724;28;20687;-90
2021/09/25 10:23:51;;;;;;;7.60;5.30;;;12.90;99.90;;;;;;5000834;28;20300;-90
2021/09/25 10:26:24;;;;;;;9.70;5.67;;;13.00;99.90;;;;;;5017559;28;20233;-90
2021/09/25 10:29:00;;;;;;;9.20;5.57;;;13.00;99.90;;;;;;5017813;28;20240;-90
2021/09/25 10:34:29;;;;;;;9.40;7.20;;;12.80;99.90;;;;;;4998618;28;20238;-91
2021/09/25 10:37:01;;;;;;;15.17;9.33;;;12.80;99.90;;;;;;4997498;28;20305;-90
2021/09/25 10:39:36;;;;;;;13.80;10.40;;;12.80;99.90;;;;;;4997721;28;20203;-91
2021/09/25 10:42:12;;;;;;;13.20;10.70;;;12.80;99.90;;;;;;4978142;28;20214;-91
2021/09/25 10:44:49;;;;;;;14.50;10.60;;;12.80;99.90;;;;;;4992564;28;20209;-91
2021/09/25 10:47:22;;;;;;;13.40;10.47;;;12.70;99.90;;;;;;4986106;28;20210;-91
2021/09/25 10:49:59;;;;;;;13.00;10.73;;;12.70;99.90;;;;;;4997969;28;20526;-91
2021/09/25 10:52:45;;;;;;;11.83;10.13;;;12.70;99.90;;;;;;5001618;28;20590;-90
2021/09/25 10:55:26;;;;;;;13.07;8.67;;;12.70;99.90;;;;;;5003084;28;20234;-90
2021/09/25 10:58:31;;;;;;;14.87;8.83;;;12.60;99.90;;;;;;4998252;28;20282;-92
2021/09/25 11:01:20;;;;;;;8.87;7.97;;;12.60;99.90;;;;;;5003721;28;20620;-89
2021/09/25 11:04:10;;;;;;;15.07;11.73;;;12.60;99.90;;;;;;5014013;28;20237;-92
2021/09/25 11:06:47;;;;;;;15.43;12.10;;;12.50;99.90;;;;;;4998406;28;20578;-90
2021/09/25 11:09:30;;;;;;;12.63;10.87;;;12.60;99.90;;;;;;4998103;28;20668;-92
2021/09/25 11:12:09;;;;;;;13.37;9.93;;;12.50;99.90;;;;;;4997847;28;20234;-89
2021/09/25 11:14:45;;;;;;;13.93;10.80;;;12.50;99.90;;;;;;5010183;28;20241;-92
2021/09/25 11:17:31;;;;;;;15.63;12.17;;;12.40;99.90;;;;;;5017873;28;20189;-90
2021/09/25 11:20:03;;;;;;;14.57;11.30;;;12.40;99.90;;;;;;5013188;28;20251;-90
2021/09/25 11:22:38;;;;;;;13.93;9.07;;;12.40;99.90;;;;;;4988036;28;20297;-90
2021/09/25 11:25:11;;;;;;;11.87;8.50;;;12.40;99.90;;;;;;4980614;28;20226;-89
2021/09/25 11:27:48;;;;;;;13.07;6.93;;;12.30;99.90;;;;;;4993455;28;20211;-88
2021/09/25 11:30:20;;;;;;;10.87;6.87;;;12.40;99.90;;;;;;4994210;28;20225;-88
2021/09/25 11:32:53;;;;;;;9.17;6.27;;;12.30;99.90;;;;;;4995174;28;20452;-89
2021/09/25 11:35:28;;;;;;;6.00;5.40;;;12.30;99.90;;;;;;4986063;28;20218;-89
2021/09/25 11:38:03;;;;;;;6.07;5.23;;;12.20;99.90;;;;;;4985167;28;20234;-89
2021/09/25 11:40:38;;;;;;;8.70;5.60;;;12.20;99.90;;;;;;4996614;28;20206;-91
2021/09/25 11:43:11;;;;;;;7.43;5.30;;;12.20;99.90;;;;;;4998797;28;20214;-92
2021/09/25 11:45:44;;;;;;;5.57;4.90;;;12.20;99.90;;;;;;4997000;28;20229;-90
2021/09/25 11:48:17;;;;;;;9.13;5.30;;;12.20;99.90;;;;;;4996449;28;20217;-90
2021/09/25 11:50:52;;;;;;;7.53;5.47;;;12.20;99.90;;;;;;4995788;28;20218;-89
2021/09/25 11:53:27;;;;;;;11.23;5.40;;;12.20;99.90;;;;;;4995629;28;20224;-90
2021/09/25 11:56:00;;;;;;;10.07;5.43;;;12.10;99.90;;;;;;4996976;28;20213;-90
2021/09/25 11:58:32;;;;;;;7.07;5.47;;;12.00;99.90;;;;;;4995867;28;20206;-89
2021/09/25 12:01:03;;;;;;;7.60;5.50;;;12.10;99.90;;;;;;4998025;28;20210;-89
2021/09/25 12:03:39;;;;;;;6.23;5.30;;;12.10;99.90;;;;;;4999102;28;20206;-89
2021/09/25 12:06:12;;;;;;;10.77;5.17;;;12.10;99.90;;;;;;5000496;28;20205;-90
2021/09/25 12:08:51;;;;;;;9.00;5.17;;;12.10;99.90;;;;;;5000937;28;20213;-89
2021/09/25 12:11:26;;;;;;;9.23;5.80;;;12.00;99.90;;;;;;5000003;28;20706;-90
2021/09/25 12:13:58;;;;;;;9.53;5.67;;;12.00;99.90;;;;;;5000803;28;20658;-90
2021/09/25 12:16:29;;;;;;;6.87;5.17;;;12.00;99.90;;;;;;5000509;28;20266;-90
2021/09/25 12:19:01;;;;;;;7.03;5.10;;;12.00;99.90;;;;;;5000695;28;20648;-90
2021/09/25 12:21:32;;;;;;;8.07;5.33;;;12.00;99.90;;;;;;4999996;28;20699;-90
2021/09/25 12:24:09;;;;;;;6.70;5.30;;;12.00;99.90;;;;;;5005085;28;20267;-89
2021/09/25 12:26:43;;;;;;;8.93;5.77;;;11.90;99.90;;;;;;5000977;28;20233;-90
2021/09/25 12:29:19;;;;;;;7.00;5.10;;;11.90;99.90;;;;;;5001561;28;20207;-89
2021/09/25 12:32:01;;;;;;;5.70;5.10;;;11.90;99.90;;;;;;4999444;28;20285;-91
2021/09/25 12:34:34;;;;;;;8.50;5.60;;;11.80;99.90;;;;;;4987297;28;20269;-90
2021/09/25 12:37:11;;;;;;;10.20;5.50;;;11.80;99.90;;;;;;5001047;28;20321;-91
2021/09/25 12:39:47;;;;;;;6.30;5.27;;;11.80;99.90;;;;;;5000956;28;20241;-90
2021/09/25 12:42:27;;;;;;;11.77;6.63;;;11.80;99.90;;;;;;4999687;28;20278;-91
2021/09/25 12:45:03;;;;;;;7.40;6.10;;;11.80;99.90;;;;;;5001188;28;20297;-90
2021/09/25 12:47:36;;;;;;;8.70;5.90;;;11.80;99.90;;;;;;5000861;28;20214;-91
2021/09/25 12:50:23;;;;;;;8.23;5.90;;;11.70;99.90;;;;;;5000933;28;20314;-91
2021/09/25 12:52:59;;;;;;;9.10;5.90;;;11.70;99.90;;;;;;4998675;28;20210;-91
2021/09/25 12:55:32;;;;;;;10.63;6.30;;;11.70;99.90;;;;;;4999750;28;20265;-91
2021/09/25 12:58:05;;;;;;;7.37;6.27;;;11.60;99.90;;;;;;5002276;28;20202;-90
2021/09/25 13:00:36;;;;;;;7.47;5.73;;;11.60;99.90;;;;;;5015429;28;20191;-89
2021/09/25 13:03:12;;;;;;;7.70;6.07;;;11.60;99.90;;;;;;5018541;28;20206;-89
2021/09/25 13:05:43;;;;;;;7.63;5.53;;;11.60;99.90;;;;;;5018722;28;20235;-89
2021/09/25 13:08:17;;;;;;;7.43;5.80;;;11.60;99.90;;;;;;5011326;28;20218;-89
2021/09/25 13:10:51;;;;;;;7.60;5.33;;;11.60;99.90;;;;;;4998667;28;20210;-91
2021/09/25 13:13:25;;;;;;;7.90;6.07;;;11.60;99.90;;;;;;4998944;28;20202;-91
2021/09/25 13:15:57;;;;;;;7.77;5.40;;;11.70;99.90;;;;;;5007392;28;20229;-90
2021/09/25 13:18:28;;;;;;;6.97;5.13;;;11.70;99.90;;;;;;5011387;28;20311;-87
2021/09/25 13:21:00;;;;;;;8.70;5.77;;;11.70;99.90;;;;;;5012108;28;20210;-89
2021/09/25 13:23:32;;;;;;;9.40;5.80;;;11.70;99.90;;;;;;5018957;28;20198;-90
2021/09/25 13:26:05;;;;;;;8.67;6.47;;;11.70;99.90;;;;;;5022903;28;20226;-90
2021/09/25 13:28:36;;;;;;;10.07;5.70;;;11.70;99.90;;;;;;5019332;28;20210;-89
2021/09/25 13:31:08;;;;;;;9.30;5.77;;;11.70;99.90;;;;;;5015068;28;20199;-88